Time;durP1;ratioP1;P1;durP2;ratioP2;P2;SDS_P1;SDS_P2;PMS_P1;PMS_P2;Temp;Humidity;BMP_temperature;BMP_pressure;BME280_temperature;BME280_humidity;BME280_pressure;Samples;Min_cycle;Max_cycle;Signal;HPM_P1;HPM_P2
2022/05/12 08:32:50;;;;;;;13.18;8.68;;;25.30;99.90;;;;;;4871661;24;20058;-88
2022/05/12 08:35:18;;;;;;;10.43;7.70;;;25.80;99.90;;;;;;4778225;29;20064;-89
2022/05/12 08:37:44;;;;;;;11.40;7.85;;;26.60;99.90;;;;;;4778117;29;20043;-88
2022/05/12 08:40:26;;;;;;;8.27;7.50;;;26.10;99.90;;;;;;4778066;29;20123;-91
2022/05/12 08:43:05;;;;;;;11.50;8.63;;;26.90;99.90;;;;;;4776836;29;20501;-92
2022/05/12 08:45:32;;;;;;;9.43;8.48;;;26.90;99.90;;;;;;4793542;29;20038;-91
2022/05/12 08:48:00;;;;;;;15.63;8.50;;;26.40;99.90;;;;;;4779461;29;20062;-91
2022/05/12 08:50:31;;;;;;;9.02;8.00;;;26.10;99.90;;;;;;4794080;29;20450;-92
2022/05/12 08:53:09;;;;;;;12.18;8.30;;;26.40;99.90;;;;;;4793829;29;20400;-89
2022/05/12 08:55:55;;;;;;;13.38;8.30;;;25.50;99.90;;;;;;4793120;29;20035;-89
2022/05/12 08:58:36;;;;;;;10.20;7.88;;;25.60;99.90;;;;;;4792609;29;20106;-88
2022/05/12 09:01:18;;;;;;;9.20;8.32;;;25.60;99.90;;;;;;4792333;29;20074;-89
2022/05/12 09:03:51;;;;;;;12.00;7.63;;;25.80;99.90;;;;;;4792632;29;20511;-89
2022/05/12 09:06:26;;;;;;;10.30;7.60;;;26.10;99.90;;;;;;4792387;29;20118;-89
2022/05/12 09:09:24;;;;;;;9.15;7.63;;;27.20;99.90;;;;;;4792691;29;20089;-92
2022/05/12 09:12:01;;;;;;;8.25;7.45;;;27.30;99.90;;;;;;4792356;29;20043;-91
2022/05/12 09:14:42;;;;;;;11.10;7.68;;;27.60;99.90;;;;;;4801020;29;20031;-88
2022/05/12 09:17:19;;;;;;;9.40;8.50;;;27.50;99.90;;;;;;4801140;29;20038;-90
2022/05/12 09:19:45;;;;;;;10.70;9.23;;;26.70;99.90;;;;;;4793166;29;20038;-89
2022/05/12 09:22:12;;;;;;;15.45;8.70;;;27.20;99.90;;;;;;4777234;29;20027;-89
2022/05/12 09:24:39;;;;;;;9.02;8.10;;;26.70;99.90;;;;;;4777143;29;20043;-91
2022/05/12 09:27:13;;;;;;;10.50;7.97;;;26.70;99.90;;;;;;4777391;29;20443;-91
2022/05/12 09:29:58;;;;;;;8.98;8.02;;;27.30;99.90;;;;;;4792087;29;20035;-91
2022/05/12 09:32:31;;;;;;;10.05;7.97;;;27.10;99.90;;;;;;4791822;29;20107;-88
2022/05/12 09:35:08;;;;;;;10.77;8.32;;;27.00;99.90;;;;;;4791898;29;20382;-88
2022/05/12 09:37:37;;;;;;;8.73;8.02;;;26.10;99.90;;;;;;4792074;29;20031;-88
2022/05/12 09:40:34;;;;;;;9.52;8.52;;;26.20;99.90;;;;;;4791808;29;20079;-87
2022/05/12 09:43:23;;;;;;;12.55;8.27;;;26.30;99.90;;;;;;4791548;29;20053;-89
2022/05/12 09:46:02;;;;;;;9.05;7.68;;;25.80;99.90;;;;;;4768028;29;20039;-87
2022/05/12 09:48:37;;;;;;;8.77;7.95;;;25.60;99.90;;;;;;4791695;29;20085;-91
2022/05/12 09:51:33;;;;;;;11.57;8.60;;;26.20;99.90;;;;;;4791738;29;20035;-91
2022/05/12 09:54:23;;;;;;;7.68;6.93;;;25.60;99.90;;;;;;4791468;29;20039;-87
2022/05/12 09:57:20;;;;;;;11.27;7.72;;;26.60;99.90;;;;;;4791736;29;20027;-90
2022/05/12 09:59:58;;;;;;;9.13;7.72;;;26.30;99.90;;;;;;4775848;29;20054;-88
2022/05/12 10:08:29;;;;;;;10.90;8.10;;;26.50;99.90;;;;;;4791506;29;20035;-88
2022/05/12 10:11:04;;;;;;;9.20;8.15;;;26.00;99.90;;;;;;4791440;29;20038;-90
2022/05/12 10:13:53;;;;;;;8.60;7.90;;;25.90;99.90;;;;;;4791638;29;20034;-88
2022/05/12 10:16:26;;;;;;;8.90;8.20;;;26.20;99.90;;;;;;4791541;29;20042;-88
2022/05/12 10:18:59;;;;;;;11.48;8.05;;;25.60;99.90;;;;;;4776337;29;20034;-89
2022/05/12 10:21:45;;;;;;;8.98;7.50;;;26.50;99.90;;;;;;4791500;29;20049;-88
2022/05/12 10:24:24;;;;;;;7.60;6.93;;;25.70;99.90;;;;;;4791097;29;20050;-89
2022/05/12 10:27:06;;;;;;;8.95;8.05;;;26.20;99.90;;;;;;4791387;29;20046;-87
2022/05/12 10:29:51;;;;;;;8.57;7.78;;;26.20;99.90;;;;;;4791318;29;20039;-87
2022/05/12 10:32:55;;;;;;;8.85;8.07;;;25.90;99.90;;;;;;4790893;29;20054;-87
2022/05/12 10:35:30;;;;;;;12.07;8.77;;;26.10;99.90;;;;;;4776633;29;20480;-87
2022/05/12 10:38:18;;;;;;;10.45;8.18;;;26.20;99.90;;;;;;4791045;29;20296;-87
2022/05/12 10:41:06;;;;;;;11.70;8.82;;;26.90;99.90;;;;;;4806450;29;20088;-87
2022/05/12 10:43:47;;;;;;;9.45;8.68;;;26.50;99.90;;;;;;4791033;29;20047;-87
2022/05/12 10:46:48;;;;;;;10.05;8.63;;;26.00;99.90;;;;;;4791151;29;20058;-87
2022/05/12 10:49:34;;;;;;;9.10;8.07;;;26.60;99.90;;;;;;4791169;29;20404;-88
2022/05/12 10:52:00;;;;;;;9.85;8.73;;;26.30;99.90;;;;;;4790851;29;20042;-87
2022/05/12 10:54:45;;;;;;;11.23;9.20;;;25.80;99.90;;;;;;4791616;29;20030;-90
2022/05/12 10:57:44;;;;;;;9.75;8.95;;;26.30;99.90;;;;;;4792168;29;20039;-90
2022/05/12 11:00:44;;;;;;;10.52;8.77;;;25.90;99.90;;;;;;4791350;29;20122;-88
2022/05/12 11:03:20;;;;;;;9.45;8.57;;;26.90;99.90;;;;;;4791930;29;20417;-88
2022/05/12 11:05:52;;;;;;;15.77;9.05;;;25.90;99.90;;;;;;4807985;29;20058;-89
2022/05/12 11:08:36;;;;;;;10.20;9.10;;;26.30;99.90;;;;;;4789878;29;20026;-90
2022/05/12 11:11:10;;;;;;;12.57;9.20;;;26.80;99.90;;;;;;4815077;29;20027;-90
2022/05/12 11:13:50;;;;;;;9.80;9.00;;;26.80;99.90;;;;;;4802682;29;20034;-91
2022/05/12 11:16:18;;;;;;;9.65;8.95;;;26.10;99.90;;;;;;4794862;29;20183;-90
2022/05/12 11:19:01;;;;;;;10.13;9.32;;;26.00;99.90;;;;;;4794484;29;20034;-90
2022/05/12 11:21:30;;;;;;;11.52;9.70;;;26.60;99.90;;;;;;4794254;29;20130;-90
2022/05/12 11:24:29;;;;;;;12.50;9.93;;;26.90;99.90;;;;;;4794047;29;20039;-90
2022/05/12 11:27:33;;;;;;;11.10;10.30;;;26.90;99.90;;;;;;4772461;29;20074;-89
2022/05/12 11:30:25;;;;;;;10.60;9.70;;;26.30;99.90;;;;;;4794350;29;20035;-88
2022/05/12 11:32:56;;;;;;;11.15;10.02;;;26.20;99.90;;;;;;4794072;29;20074;-89
2022/05/12 11:35:29;;;;;;;10.65;9.43;;;26.20;99.90;;;;;;4779289;29;20042;-89
2022/05/12 11:38:02;;;;;;;10.95;9.95;;;26.60;99.90;;;;;;4787522;30;20035;-89
2022/05/12 11:40:41;;;;;;;11.82;9.48;;;26.20;99.90;;;;;;4775948;30;20035;-89
2022/05/12 11:46:25;;;;;;;10.45;9.18;;;26.80;99.90;;;;;;4775865;30;20039;-89
2022/05/12 11:49:24;;;;;;;10.13;9.10;;;27.00;99.90;;;;;;4784603;29;20126;-89
2022/05/12 11:52:03;;;;;;;10.65;9.52;;;26.70;99.90;;;;;;4774562;29;20035;-89
2022/05/12 11:55:03;;;;;;;10.05;9.27;;;27.00;99.90;;;;;;4781792;29;20601;-90
2022/05/12 11:57:40;;;;;;;14.27;9.50;;;26.90;99.90;;;;;;4793442;29;20058;-89
2022/05/12 12:00:27;;;;;;;9.93;8.95;;;27.00;99.90;;;;;;4793704;29;20038;-88
2022/05/12 12:02:54;;;;;;;10.98;9.27;;;27.10;99.90;;;;;;4778324;29;20520;-90
2022/05/12 12:58:08;;;;;;;11.23;10.05;;;27.00;99.90;;;;;;4782713;30;20109;-92
2022/05/12 13:00:37;;;;;;;10.63;9.73;;;27.40;99.90;;;;;;4764359;30;20035;-92
2022/05/12 13:03:27;;;;;;;10.48;9.55;;;27.40;99.90;;;;;;4745160;30;20070;-93
2022/05/12 13:06:07;;;;;;;11.18;9.50;;;27.40;99.90;;;;;;4741793;30;20080;-91
2022/05/12 13:08:34;;;;;;;10.73;9.68;;;27.10;99.90;;;;;;4758066;30;20032;-92
2022/05/12 13:11:07;;;;;;;11.55;10.55;;;26.90;99.90;;;;;;4772540;30;20040;-92
2022/05/12 13:19:46;;;;;;;11.30;10.40;;;27.10;99.90;;;;;;4882421;24;20055;-92
2022/05/12 13:23:03;;;;;;;14.70;10.13;;;27.00;99.90;;;;;;4824457;29;20081;-92
2022/05/12 13:25:35;;;;;;;13.60;10.13;;;27.00;99.90;;;;;;4789806;29;20035;-93
2022/05/12 13:28:05;;;;;;;10.27;8.70;;;27.00;99.90;;;;;;4789129;29;20106;-91
2022/05/12 13:30:42;;;;;;;10.30;9.48;;;26.80;99.90;;;;;;4803132;29;20035;-92
2022/05/12 13:33:32;;;;;;;10.70;9.80;;;27.10;99.90;;;;;;4811167;29;20015;-93
2022/05/12 13:36:23;;;;;;;10.75;9.95;;;27.00;99.90;;;;;;4779817;29;20050;-94
2022/05/12 13:38:52;;;;;;;11.55;10.02;;;26.60;99.90;;;;;;4828267;29;20064;-93
2022/05/12 13:41:52;;;;;;;11.25;10.30;;;26.90;99.90;;;;;;4794838;29;20078;-93
2022/05/12 13:44:48;;;;;;;10.73;9.60;;;27.10;99.90;;;;;;4784926;29;20051;-93
2022/05/12 13:48:06;;;;;;;11.60;10.50;;;26.90;99.90;;;;;;4759954;29;20067;-91
2022/05/12 13:50:59;;;;;;;12.27;10.30;;;27.00;99.90;;;;;;4935119;24;20048;-92
2022/05/12 13:54:08;;;;;;;11.57;10.38;;;26.80;99.90;;;;;;4772851;30;20048;-93
2022/05/12 13:56:46;;;;;;;12.30;11.10;;;27.20;99.90;;;;;;4774069;30;20483;-92
2022/05/12 13:59:33;;;;;;;11.02;10.18;;;26.70;99.90;;;;;;4763793;30;20032;-94
2022/05/12 14:02:37;;;;;;;11.27;10.13;;;26.60;99.90;;;;;;4743067;30;20035;-92
2022/05/12 14:05:25;;;;;;;13.95;10.75;;;26.90;99.90;;;;;;4773677;30;20124;-92
2022/05/12 14:08:32;;;;;;;11.40;10.50;;;26.90;99.90;;;;;;4758751;30;20022;-95
2022/05/12 14:11:29;;;;;;;11.35;10.32;;;27.30;99.90;;;;;;4738456;30;20061;-92
2022/05/12 14:20:20;;;;;;;14.55;11.70;;;27.60;99.90;;;;;;4738042;30;20084;-93
2022/05/12 14:23:04;;;;;;;16.52;12.38;;;27.40;99.90;;;;;;4720957;30;20061;-94
2022/05/12 14:25:39;;;;;;;17.77;10.13;;;27.10;99.90;;;;;;4722933;30;20045;-94
2022/05/12 14:28:39;;;;;;;9.82;8.80;;;27.00;99.90;;;;;;4738326;30;20065;-93
2022/05/12 14:31:25;;;;;;;9.48;8.18;;;26.90;99.90;;;;;;4738342;30;20116;-91
2022/05/12 14:37:12;;;;;;;11.15;9.00;;;27.10;99.90;;;;;;4809075;30;20130;-92
2022/05/12 14:39:48;;;;;;;11.63;8.68;;;27.00;99.90;;;;;;4779771;30;20043;-92
2022/05/12 14:42:23;;;;;;;10.10;8.43;;;27.00;99.90;;;;;;4793417;30;20040;-92
2022/05/12 14:44:51;;;;;;;16.05;9.50;;;27.10;99.90;;;;;;4779393;30;20023;-93
2022/05/12 14:47:28;;;;;;;11.18;8.80;;;27.00;99.90;;;;;;4779021;30;20042;-94
2022/05/12 14:49:57;;;;;;;9.40;8.60;;;26.60;99.90;;;;;;4771861;30;20051;-91
2022/05/12 14:52:40;;;;;;;8.82;7.80;;;26.60;99.90;;;;;;4775787;30;20038;-92
2022/05/12 14:55:08;;;;;;;8.77;7.97;;;26.70;99.90;;;;;;4785430;30;20050;-93
2022/05/12 14:57:34;;;;;;;8.45;7.35;;;26.50;99.90;;;;;;4757917;30;20039;-92
2022/05/12 15:00:02;;;;;;;8.57;7.78;;;26.60;99.90;;;;;;4766735;30;20050;-92
2022/05/12 15:02:42;;;;;;;10.38;7.68;;;26.60;99.90;;;;;;4786374;30;20027;-93
2022/05/12 15:05:12;;;;;;;10.70;7.97;;;26.80;99.90;;;;;;4769792;30;20092;-91
2022/05/12 15:07:43;;;;;;;8.32;7.55;;;26.90;99.90;;;;;;4756890;30;20119;-93
2022/05/12 15:10:14;;;;;;;8.98;7.93;;;26.90;99.90;;;;;;4760999;30;20056;-92
2022/05/12 15:12:43;;;;;;;8.98;8.18;;;26.80;99.90;;;;;;4774495;30;20048;-93
2022/05/12 15:15:11;;;;;;;8.55;7.95;;;26.70;99.90;;;;;;4729191;30;20044;-92
2022/05/12 15:17:43;;;;;;;7.97;7.28;;;26.50;99.90;;;;;;4752567;30;20040;-92
2022/05/12 15:20:19;;;;;;;11.88;8.00;;;26.60;99.90;;;;;;4749231;30;20040;-94
2022/05/12 15:22:55;;;;;;;8.40;7.60;;;26.50;99.90;;;;;;4739664;30;20138;-93
2022/05/12 15:25:24;;;;;;;10.40;8.38;;;26.60;99.90;;;;;;4738385;30;20089;-91
2022/05/12 15:27:52;;;;;;;9.55;8.55;;;26.70;99.90;;;;;;4745253;30;20017;-92
2022/05/12 15:30:26;;;;;;;8.75;8.10;;;26.60;99.90;;;;;;4753459;30;20041;-93
2022/05/12 15:32:56;;;;;;;9.18;8.32;;;26.60;99.90;;;;;;4736909;30;20033;-92
2022/05/12 15:35:26;;;;;;;9.38;8.15;;;26.70;99.90;;;;;;4711057;30;20139;-93
2022/05/12 15:37:59;;;;;;;12.38;8.80;;;26.30;99.90;;;;;;4770890;30;20075;-92
2022/05/12 15:40:31;;;;;;;11.45;8.27;;;26.30;99.90;;;;;;4769623;30;20032;-93
2022/05/12 15:42:58;;;;;;;11.27;8.68;;;26.30;99.90;;;;;;4769734;30;20201;-90
2022/05/12 15:45:30;;;;;;;9.10;8.23;;;26.40;99.90;;;;;;4808490;24;20067;-92
2022/05/12 15:47:57;;;;;;;9.20;7.75;;;26.30;99.90;;;;;;4812414;29;20034;-93
2022/05/12 15:50:32;;;;;;;8.27;7.53;;;26.20;99.90;;;;;;4807916;29;20019;-92
2022/05/12 15:53:02;;;;;;;8.55;7.53;;;25.90;99.90;;;;;;4812430;29;20066;-92
2022/05/12 15:55:40;;;;;;;8.32;7.50;;;25.80;99.90;;;;;;4812397;24;20028;-91
2022/05/12 15:58:13;;;;;;;11.50;7.15;;;25.80;99.90;;;;;;4764710;30;20047;-93
2022/05/12 16:00:53;;;;;;;7.68;6.97;;;25.60;99.90;;;;;;4764832;30;20034;-93
2022/05/12 16:03:31;;;;;;;7.72;7.07;;;25.50;99.90;;;;;;4774604;30;20048;-91
2022/05/12 16:21:20;;;;;;;11.55;5.63;;;24.80;99.90;;;;;;4868420;24;20066;-92
2022/05/12 17:04:30;;;;;;;16.50;5.20;;;23.30;99.90;;;;;;4843152;24;20173;-92
2022/05/12 17:44:58;;;;;;;14.05;5.10;;;22.00;99.90;;;;;;5558150;24;20065;-94
2022/05/12 17:47:25;;;;;;;13.25;4.72;;;21.70;99.90;;;;;;4799845;29;20034;-93
2022/05/12 17:49:51;;;;;;;11.85;4.43;;;21.60;99.90;;;;;;4797092;29;20031;-92
2022/05/12 17:52:18;;;;;;;10.48;5.35;;;21.50;99.90;;;;;;4782563;29;20063;-90
2022/05/12 17:54:44;;;;;;;9.20;4.07;;;21.50;99.90;;;;;;4795131;29;20064;-93
2022/05/12 17:57:11;;;;;;;9.52;4.05;;;21.40;99.90;;;;;;4793581;29;20062;-92
2022/05/12 17:59:43;;;;;;;8.82;3.97;;;21.30;99.90;;;;;;4794212;29;20129;-91
2022/05/12 18:02:14;;;;;;;11.30;5.07;;;21.30;99.90;;;;;;4795331;29;20035;-93
2022/05/12 18:04:41;;;;;;;13.68;4.78;;;21.30;99.90;;;;;;4793954;29;20580;-91
2022/05/12 18:07:09;;;;;;;9.25;4.95;;;21.20;99.90;;;;;;4784053;30;20039;-93
2022/05/12 18:09:37;;;;;;;13.63;4.60;;;21.10;99.90;;;;;;4775053;30;20035;-92
2022/05/12 18:12:04;;;;;;;11.27;4.40;;;20.90;99.90;;;;;;4807456;30;20036;-92
2022/05/12 18:14:31;;;;;;;11.70;5.25;;;20.80;99.90;;;;;;4800939;29;20020;-90
2022/05/12 18:16:58;;;;;;;10.43;4.40;;;20.80;99.90;;;;;;4798636;30;20041;-93
2022/05/12 18:19:24;;;;;;;11.63;4.47;;;20.70;99.90;;;;;;4789714;30;20038;-91
2022/05/12 18:21:51;;;;;;;11.48;4.47;;;20.70;99.90;;;;;;4789799;30;20024;-91
2022/05/12 18:24:18;;;;;;;12.32;4.57;;;20.50;99.90;;;;;;4774761;30;20413;-90
2022/05/12 18:26:44;;;;;;;14.02;4.72;;;20.30;99.90;;;;;;4789515;30;20405;-92
2022/05/12 18:29:11;;;;;;;8.73;4.13;;;20.20;99.90;;;;;;4759174;30;20130;-93
2022/05/12 18:31:40;;;;;;;8.10;4.07;;;20.20;99.90;;;;;;4774378;30;20035;-92
2022/05/12 18:34:08;;;;;;;11.73;4.45;;;20.20;99.90;;;;;;4774442;30;20028;-91
2022/05/12 18:36:40;;;;;;;14.77;4.18;;;20.20;99.90;;;;;;4776892;30;20035;-93
2022/05/12 18:39:09;;;;;;;12.55;4.57;;;20.10;99.90;;;;;;4777395;30;20027;-94
2022/05/12 18:41:35;;;;;;;16.10;4.88;;;20.10;99.90;;;;;;4774850;30;20126;-92
2022/05/12 18:44:02;;;;;;;10.18;5.00;;;20.10;99.90;;;;;;4759490;30;20043;-90
2022/05/12 18:46:33;;;;;;;8.77;5.47;;;20.10;99.90;;;;;;4773720;30;20065;-91
2022/05/12 18:49:00;;;;;;;15.18;5.80;;;20.10;99.90;;;;;;4789615;30;20039;-90
2022/05/12 18:51:29;;;;;;;13.98;6.45;;;20.10;99.90;;;;;;4775624;30;20114;-92
2022/05/12 18:53:56;;;;;;;16.75;6.97;;;20.10;99.90;;;;;;4774832;30;20054;-91
2022/05/12 18:56:23;;;;;;;16.48;7.97;;;20.30;99.90;;;;;;4788791;30;20230;-93
2022/05/12 18:58:50;;;;;;;13.85;7.30;;;20.10;99.90;;;;;;4773671;30;20043;-91
2022/05/12 19:01:17;;;;;;;14.98;6.72;;;20.00;99.90;;;;;;4774550;30;20457;-92
2022/05/12 19:03:44;;;;;;;21.13;7.43;;;20.00;99.90;;;;;;4773726;30;20070;-93
2022/05/12 19:06:11;;;;;;;18.75;8.90;;;20.10;99.90;;;;;;4773049;30;20112;-93
2022/05/12 19:08:38;;;;;;;20.65;9.77;;;20.20;99.90;;;;;;4772804;30;20038;-93
2022/05/12 19:11:05;;;;;;;18.83;8.40;;;20.40;99.90;;;;;;4788056;30;20044;-94
2022/05/12 19:13:33;;;;;;;16.98;8.57;;;20.20;99.90;;;;;;4770134;30;20039;-91
2022/05/12 19:15:59;;;;;;;23.10;9.38;;;20.10;99.90;;;;;;4773292;30;20028;-91
2022/05/12 19:18:27;;;;;;;21.40;9.23;;;19.90;99.90;;;;;;4773050;30;20073;-92
2022/05/12 19:20:54;;;;;;;22.63;8.77;;;19.70;99.90;;;;;;4787907;30;20096;-93
2022/05/12 19:23:21;;;;;;;20.58;8.35;;;19.60;99.90;;;;;;4772831;30;20043;-90
2022/05/12 19:25:49;;;;;;;18.92;8.30;;;19.60;99.90;;;;;;4773189;30;20061;-93
2022/05/12 19:28:17;;;;;;;21.45;8.55;;;19.60;99.90;;;;;;4776300;30;20037;-92
2022/05/12 19:30:46;;;;;;;17.52;7.60;;;19.40;99.90;;;;;;4776582;30;20516;-92
2022/05/12 19:33:14;;;;;;;19.08;7.68;;;19.40;99.90;;;;;;4776237;30;20038;-92
2022/05/12 19:35:42;;;;;;;16.20;7.28;;;19.20;99.90;;;;;;4776116;30;20122;-92
2022/05/12 19:38:09;;;;;;;16.98;7.38;;;19.20;99.90;;;;;;4776168;30;20039;-93
2022/05/12 19:40:39;;;;;;;15.48;7.32;;;19.40;99.90;;;;;;4776299;30;20043;-91
2022/05/12 19:43:07;;;;;;;13.43;6.82;;;19.40;99.90;;;;;;4790859;30;20391;-91
2022/05/12 19:45:36;;;;;;;19.20;6.80;;;19.40;99.90;;;;;;4775823;30;20490;-92
2022/05/12 19:48:03;;;;;;;15.95;7.47;;;19.30;99.90;;;;;;4791024;30;20035;-90
2022/05/12 19:50:33;;;;;;;17.60;7.07;;;19.30;99.90;;;;;;4775848;30;20106;-91
2022/05/12 19:52:59;;;;;;;15.40;6.90;;;19.20;99.90;;;;;;4791103;30;20046;-93
2022/05/12 19:55:26;;;;;;;17.60;7.80;;;19.20;99.90;;;;;;4775771;30;20481;-92
2022/05/12 19:57:53;;;;;;;18.25;7.30;;;19.10;99.90;;;;;;4776514;30;20036;-93
2022/05/12 20:00:26;;;;;;;20.45;8.23;;;18.90;99.90;;;;;;4775533;30;20043;-93
2022/05/12 20:02:53;;;;;;;18.05;7.35;;;18.80;99.90;;;;;;4790763;30;20126;-92
2022/05/12 20:05:21;;;;;;;14.60;7.47;;;18.60;99.90;;;;;;4775754;30;20043;-93
2022/05/12 20:07:47;;;;;;;17.65;7.05;;;18.70;99.90;;;;;;4790305;30;20427;-93
2022/05/12 20:10:16;;;;;;;14.85;7.55;;;18.70;99.90;;;;;;4790463;30;20035;-92
2022/05/12 20:12:43;;;;;;;18.73;8.65;;;18.70;99.90;;;;;;4794350;29;20007;-93
2022/05/12 20:15:14;;;;;;;16.42;8.20;;;18.70;99.90;;;;;;4798807;29;20044;-94
2022/05/12 20:17:42;;;;;;;14.88;7.05;;;18.70;99.90;;;;;;4791336;30;20039;-94
2022/05/12 20:20:12;;;;;;;13.63;7.32;;;18.70;99.90;;;;;;4790152;30;20043;-93
2022/05/12 20:22:38;;;;;;;15.90;7.55;;;18.60;99.90;;;;;;4775589;30;20048;-93
2022/05/12 20:25:05;;;;;;;18.23;7.43;;;18.50;99.90;;;;;;4790077;30;20114;-91
2022/05/12 20:27:32;;;;;;;17.27;7.85;;;18.40;99.90;;;;;;4790209;30;20487;-94
2022/05/12 20:30:04;;;;;;;18.73;6.97;;;18.30;99.90;;;;;;4775125;30;20039;-93
2022/05/12 20:32:34;;;;;;;19.02;8.00;;;18.30;99.90;;;;;;4775621;30;20039;-92
2022/05/12 20:35:01;;;;;;;22.02;8.30;;;18.20;99.90;;;;;;4775656;30;20039;-93
2022/05/12 20:37:29;;;;;;;18.75;7.57;;;18.10;99.90;;;;;;4776330;30;20389;-92
2022/05/12 20:40:04;;;;;;;21.63;8.63;;;18.10;99.90;;;;;;4796288;30;20031;-92
2022/05/12 20:42:31;;;;;;;16.35;8.15;;;18.10;99.90;;;;;;4775724;30;20061;-84
2022/05/12 20:48:11;;;;;;;22.27;8.98;;;18.00;99.90;;;;;;4788323;30;20063;-89
2022/05/12 20:50:39;;;;;;;19.73;9.38;;;17.90;99.90;;;;;;4789825;30;20076;-88
2022/05/12 20:53:06;;;;;;;27.63;10.32;;;17.90;99.90;;;;;;4775930;30;20107;-88
2022/05/12 20:55:34;;;;;;;26.58;11.13;;;17.90;99.90;;;;;;4775367;30;20039;-89
2022/05/12 20:58:03;;;;;;;28.23;12.02;;;17.90;99.90;;;;;;4775022;30;20121;-88
2022/05/12 21:00:30;;;;;;;27.38;11.95;;;18.00;99.90;;;;;;4773975;30;20040;-86
2022/05/12 21:02:57;;;;;;;25.58;12.55;;;18.00;99.90;;;;;;4774288;30;20035;-86
2022/05/12 21:05:25;;;;;;;33.10;14.52;;;18.00;99.90;;;;;;4773217;30;20134;-87
2022/05/12 21:07:51;;;;;;;36.38;15.43;;;17.90;99.90;;;;;;4771620;30;20516;-88
2022/05/12 21:10:17;;;;;;;36.60;16.50;;;17.80;99.90;;;;;;4755564;30;20144;-88
2022/05/12 21:12:44;;;;;;;36.72;16.23;;;17.70;99.90;;;;;;4756126;30;20038;-86
2022/05/12 21:15:10;;;;;;;36.70;17.33;;;17.60;99.90;;;;;;4760048;30;20067;-87
2022/05/12 21:17:38;;;;;;;38.58;17.02;;;17.60;99.90;;;;;;4779487;30;20038;-86
2022/05/12 21:20:07;;;;;;;28.40;16.40;;;17.70;99.90;;;;;;4774908;30;20031;-85
2022/05/12 21:22:37;;;;;;;34.15;15.82;;;17.50;99.90;;;;;;4774702;30;20055;-89
2022/05/12 21:25:05;;;;;;;31.35;14.82;;;17.50;99.90;;;;;;4773364;30;20411;-89
2022/05/12 21:27:32;;;;;;;37.97;15.77;;;17.30;99.90;;;;;;4769373;30;20034;-89
2022/05/12 21:29:59;;;;;;;31.65;15.00;;;17.30;99.90;;;;;;4774138;30;20042;-86
2022/05/12 21:32:27;;;;;;;34.22;15.02;;;17.20;99.90;;;;;;4774306;30;20027;-86
2022/05/12 21:34:53;;;;;;;34.60;15.63;;;17.10;99.90;;;;;;4773787;30;20041;-86
2022/05/12 21:37:21;;;;;;;29.08;14.63;;;16.80;99.90;;;;;;4773923;30;20038;-86
2022/05/12 21:39:48;;;;;;;40.05;14.82;;;17.00;99.90;;;;;;4788740;30;20156;-86
2022/05/12 21:42:14;;;;;;;28.38;13.40;;;17.00;99.90;;;;;;4788650;30;20512;-86
2022/05/12 21:44:41;;;;;;;33.58;15.48;;;17.10;99.90;;;;;;4758843;30;20039;-86
2022/05/12 21:47:08;;;;;;;28.58;13.65;;;17.00;99.90;;;;;;4773678;30;20084;-86
2022/05/12 21:49:35;;;;;;;37.00;15.52;;;17.00;99.90;;;;;;4793159;29;20051;-86
2022/05/12 21:52:05;;;;;;;34.97;15.13;;;17.10;99.90;;;;;;4788401;30;20122;-86
2022/05/12 21:54:32;;;;;;;31.85;14.07;;;17.00;99.90;;;;;;4788409;30;20063;-86
2022/05/12 22:02:32;;;;;;;25.92;13.23;;;16.50;99.90;;;;;;4787993;30;20065;-86
2022/05/12 22:04:59;;;;;;;28.92;13.13;;;16.60;99.90;;;;;;4771700;30;20047;-85
2022/05/12 22:07:25;;;;;;;24.55;12.82;;;16.70;99.90;;;;;;4768310;30;20039;-86
2022/05/12 22:09:52;;;;;;;32.45;14.85;;;16.70;99.90;;;;;;4770015;30;20062;-86
2022/05/12 22:12:18;;;;;;;35.65;15.57;;;16.60;99.90;;;;;;4788246;30;20043;-86
2022/05/12 22:14:51;;;;;;;32.15;15.23;;;16.50;99.90;;;;;;4773604;30;20035;-87
2022/05/12 22:17:24;;;;;;;34.67;15.82;;;16.30;99.90;;;;;;4769800;30;20046;-88
2022/05/12 22:19:50;;;;;;;42.30;17.90;;;16.20;99.90;;;;;;4786365;30;20031;-87
2022/05/12 22:22:17;;;;;;;38.67;16.27;;;16.20;99.90;;;;;;4788391;29;20101;-87
2022/05/12 22:24:44;;;;;;;38.50;17.60;;;16.20;99.90;;;;;;4772124;30;20045;-90
2022/05/12 22:27:13;;;;;;;37.15;17.52;;;16.20;99.90;;;;;;4772943;30;20052;-88
2022/05/12 22:29:42;;;;;;;38.05;17.08;;;16.30;99.90;;;;;;4773848;30;20035;-88
2022/05/12 22:32:16;;;;;;;32.42;15.57;;;16.40;99.90;;;;;;4772846;30;20078;-92
2022/05/12 22:34:43;;;;;;;34.08;16.20;;;16.50;99.90;;;;;;4771499;30;20035;-91
2022/05/12 22:37:10;;;;;;;30.58;15.35;;;16.50;99.90;;;;;;4775195;30;20533;-89
2022/05/12 22:39:36;;;;;;;36.90;15.40;;;16.20;99.90;;;;;;4772388;30;20118;-89
2022/05/12 22:42:03;;;;;;;31.95;14.73;;;16.20;99.90;;;;;;4772939;30;20034;-88
2022/05/12 22:44:30;;;;;;;31.42;14.98;;;16.20;99.90;;;;;;4773711;30;20047;-87
2022/05/12 22:46:56;;;;;;;29.85;14.00;;;16.30;99.90;;;;;;4782265;30;20079;-88
2022/05/12 22:49:23;;;;;;;35.90;15.18;;;16.20;99.90;;;;;;4770891;30;20130;-90
2022/05/12 22:51:49;;;;;;;34.55;15.23;;;16.30;99.90;;;;;;4772570;30;20036;-89
2022/05/12 22:54:16;;;;;;;34.92;15.07;;;16.20;99.90;;;;;;4773287;30;20090;-89
2022/05/12 22:56:44;;;;;;;36.10;15.65;;;16.20;99.90;;;;;;4774685;30;20032;-90
2022/05/12 22:59:12;;;;;;;35.67;15.57;;;16.20;99.90;;;;;;4773546;30;20120;-89
2022/05/12 23:01:39;;;;;;;31.10;14.73;;;16.20;99.90;;;;;;4774697;30;20039;-89
2022/05/12 23:04:06;;;;;;;33.90;14.57;;;16.20;99.90;;;;;;4777125;30;20055;-90
2022/05/12 23:06:33;;;;;;;31.83;14.23;;;16.10;99.90;;;;;;4772544;30;20035;-89
2022/05/12 23:09:00;;;;;;;31.38;14.35;;;16.10;99.90;;;;;;4774965;30;20044;-89
2022/05/12 23:11:26;;;;;;;31.92;14.82;;;16.10;99.90;;;;;;4774176;30;20088;-89
2022/05/12 23:13:53;;;;;;;28.13;14.02;;;16.00;99.90;;;;;;4773950;30;20055;-89
2022/05/12 23:16:19;;;;;;;29.13;14.02;;;16.10;99.90;;;;;;4773747;30;20126;-90
2022/05/12 23:24:17;;;;;;;34.20;16.73;;;16.40;99.90;;;;;;4790085;30;20104;-88
2022/05/12 23:26:44;;;;;;;35.58;16.75;;;16.50;99.90;;;;;;4774720;30;20028;-90
2022/05/12 23:29:11;;;;;;;33.53;16.20;;;16.50;99.90;;;;;;4774767;30;20040;-90
2022/05/12 23:31:38;;;;;;;29.58;16.58;;;16.60;99.90;;;;;;4774337;30;20062;-90
2022/05/12 23:34:06;;;;;;;35.15;15.60;;;16.70;99.90;;;;;;4774589;30;20031;-89
2022/05/12 23:36:33;;;;;;;30.45;16.02;;;16.70;99.90;;;;;;4775084;30;20035;-89
2022/05/12 23:39:02;;;;;;;33.65;16.27;;;16.70;99.90;;;;;;4774962;30;20440;-89
2022/05/12 23:41:29;;;;;;;24.45;14.07;;;16.70;99.90;;;;;;4777957;30;20117;-89
2022/05/12 23:43:56;;;;;;;26.38;14.55;;;16.50;99.90;;;;;;4778606;30;20048;-90
2022/05/12 23:46:22;;;;;;;25.88;14.15;;;16.50;99.90;;;;;;4789478;29;20051;-89
2022/05/12 23:48:49;;;;;;;23.30;13.63;;;16.50;99.90;;;;;;4809064;29;20035;-89
2022/05/12 23:51:15;;;;;;;25.48;13.23;;;16.40;99.90;;;;;;4794056;30;20031;-89
2022/05/12 23:53:42;;;;;;;25.20;14.30;;;16.50;99.90;;;;;;4793286;30;20035;-89
2022/05/12 23:56:09;;;;;;;26.80;13.95;;;16.30;99.90;;;;;;4793975;30;20549;-89
2022/05/12 23:58:36;;;;;;;24.90;13.30;;;16.20;99.90;;;;;;4799971;29;20026;-91
